Time;durP1;ratioP1;P1;durP2;ratioP2;P2;SDS_P1;SDS_P2;PMS_P1;PMS_P2;Temp;Humidity;BMP_temperature;BMP_pressure;BME280_temperature;BME280_humidity;BME280_pressure;Samples;Min_cycle;Max_cycle;Signal;HPM_P1;HPM_P2
2022/06/18 00:00:17;;;;;;;5.53;3.20;;;13.60;99.90;;;;;;5095992;28;20654;-84
2022/06/18 00:02:43;;;;;;;6.43;3.60;;;13.60;99.90;;;;;;5095061;28;20181;-84
2022/06/18 00:05:11;;;;;;;4.95;3.28;;;13.50;99.90;;;;;;5094517;28;20631;-84
2022/06/18 00:07:45;;;;;;;4.80;3.22;;;13.40;99.90;;;;;;5095609;28;20166;-84
2022/06/18 00:10:14;;;;;;;4.18;3.00;;;13.50;99.90;;;;;;5094667;28;20236;-84
2022/06/18 00:15:31;;;;;;;5.88;4.03;;;13.50;99.90;;;;;;5094548;28;20223;-84
2022/06/18 00:17:57;;;;;;;4.03;2.97;;;13.40;99.90;;;;;;5094012;28;20206;-84
2022/06/18 00:20:27;;;;;;;5.13;3.30;;;13.40;99.90;;;;;;5095318;28;20192;-84
2022/06/18 00:22:55;;;;;;;4.75;3.15;;;13.40;99.90;;;;;;5095591;28;20651;-84
2022/06/18 00:25:35;;;;;;;3.40;2.55;;;13.40;99.90;;;;;;5095045;28;20690;-85
2022/06/18 00:28:03;;;;;;;4.97;3.33;;;13.30;99.90;;;;;;5095621;28;20163;-83
2022/06/18 00:30:30;;;;;;;5.95;3.00;;;13.30;99.90;;;;;;5093490;28;20231;-84
2022/06/18 00:32:56;;;;;;;5.68;3.47;;;13.30;99.90;;;;;;5094022;28;20174;-84
2022/06/18 00:35:22;;;;;;;6.38;4.00;;;13.30;99.90;;;;;;5095315;28;20170;-84
2022/06/18 00:37:54;;;;;;;8.80;4.28;;;13.20;99.90;;;;;;5095323;28;20178;-83
2022/06/18 00:40:41;;;;;;;7.68;4.25;;;13.30;99.90;;;;;;5094844;28;20250;-85
2022/06/18 00:43:14;;;;;;;4.30;3.55;;;13.20;99.90;;;;;;5094809;28;20283;-84
2022/06/18 00:45:40;;;;;;;6.38;4.25;;;13.10;99.90;;;;;;5095065;28;20170;-84
2022/06/18 00:48:32;;;;;;;6.55;3.83;;;13.10;99.90;;;;;;5095492;28;20178;-83
2022/06/18 00:51:09;;;;;;;6.05;4.30;;;13.00;99.90;;;;;;5077825;28;20313;-83
2022/06/18 00:53:43;;;;;;;4.70;3.78;;;13.00;99.90;;;;;;5095119;28;20158;-84
2022/06/18 00:56:43;;;;;;;5.57;4.32;;;13.00;99.90;;;;;;5094912;28;20174;-84
2022/06/18 00:59:26;;;;;;;6.90;4.50;;;12.90;99.90;;;;;;5093499;28;20193;-85
2022/06/18 01:01:54;;;;;;;6.97;4.75;;;12.90;99.90;;;;;;5093633;28;20623;-84
2022/06/18 01:04:38;;;;;;;6.75;4.75;;;12.80;99.90;;;;;;5093559;28;20569;-84
2022/06/18 01:07:14;;;;;;;6.47;4.43;;;12.80;99.90;;;;;;5094933;28;20167;-84
2022/06/18 01:09:40;;;;;;;10.98;4.95;;;12.80;99.90;;;;;;5094230;28;20190;-84
2022/06/18 01:12:07;;;;;;;5.53;4.82;;;12.80;99.90;;;;;;5093530;28;20185;-84
2022/06/18 01:14:33;;;;;;;8.63;5.20;;;12.80;99.90;;;;;;5093126;28;20207;-84
2022/06/18 01:17:02;;;;;;;8.43;4.25;;;12.80;99.90;;;;;;5094854;28;20648;-84
2022/06/18 01:19:36;;;;;;;10.10;5.70;;;12.70;99.90;;;;;;5093928;28;20257;-85
2022/06/18 01:22:34;;;;;;;9.30;4.75;;;12.80;99.90;;;;;;5093592;28;20247;-84
2022/06/18 01:25:00;;;;;;;8.07;4.80;;;12.20;99.90;;;;;;5094420;28;20684;-84
2022/06/18 01:27:26;;;;;;;6.32;4.38;;;12.70;99.90;;;;;;5093002;28;20623;-87
2022/06/18 01:29:53;;;;;;;8.32;5.18;;;12.70;99.90;;;;;;5092009;28;20256;-84
2022/06/18 01:32:19;;;;;;;8.63;4.93;;;12.80;99.90;;;;;;5093367;28;20248;-84
2022/06/18 01:34:46;;;;;;;10.35;4.68;;;12.70;99.90;;;;;;5094140;28;20668;-84
2022/06/18 01:37:13;;;;;;;7.82;5.18;;;12.70;99.90;;;;;;5094211;28;20175;-84
2022/06/18 01:39:43;;;;;;;8.90;5.10;;;12.70;99.90;;;;;;5092525;28;20182;-84
2022/06/18 01:42:29;;;;;;;9.85;4.80;;;12.60;99.90;;;;;;5094194;28;20190;-84
2022/06/18 01:44:59;;;;;;;6.68;4.35;;;12.60;99.90;;;;;;5094323;28;20189;-84
2022/06/18 01:47:48;;;;;;;7.22;4.70;;;12.50;99.90;;;;;;5092799;28;20654;-84
2022/06/18 01:50:32;;;;;;;7.40;5.22;;;12.60;99.90;;;;;;5082113;28;20269;-84
2022/06/18 01:53:33;;;;;;;6.35;3.92;;;12.50;99.90;;;;;;5092730;28;20224;-84
2022/06/18 01:56:06;;;;;;;6.22;3.85;;;12.60;99.90;;;;;;5070661;28;20186;-84
2022/06/18 01:58:38;;;;;;;5.05;4.07;;;12.60;99.90;;;;;;5093814;28;20186;-85
2022/06/18 02:01:09;;;;;;;5.10;3.55;;;12.60;99.90;;;;;;5093831;28;20239;-84
2022/06/18 02:03:36;;;;;;;6.68;4.05;;;12.50;99.90;;;;;;5093471;28;20154;-84
2022/06/18 02:06:03;;;;;;;10.68;4.22;;;12.50;99.90;;;;;;5093717;28;20174;-84
2022/06/18 02:08:29;;;;;;;10.50;4.38;;;12.70;99.90;;;;;;5092354;28;20562;-83
2022/06/18 02:10:57;;;;;;;7.63;4.30;;;12.50;99.90;;;;;;5091844;28;20214;-83
2022/06/18 02:13:29;;;;;;;7.18;3.92;;;12.50;99.90;;;;;;5093543;28;20257;-83
2022/06/18 02:15:57;;;;;;;5.88;3.90;;;12.50;99.90;;;;;;5093039;28;20167;-84
2022/06/18 02:18:23;;;;;;;8.60;4.22;;;12.50;99.90;;;;;;5093418;28;20647;-84
2022/06/18 02:20:53;;;;;;;7.50;4.28;;;12.50;99.90;;;;;;5093409;28;20178;-84
2022/06/18 02:23:20;;;;;;;5.50;4.13;;;12.40;99.90;;;;;;5093187;28;20170;-84
2022/06/18 02:25:47;;;;;;;4.50;3.38;;;12.50;99.90;;;;;;5097785;28;20213;-84
2022/06/18 02:28:20;;;;;;;5.90;3.92;;;12.40;99.90;;;;;;5102889;28;20174;-83
2022/06/18 02:30:46;;;;;;;8.57;4.53;;;12.70;99.90;;;;;;5100940;28;20194;-85
2022/06/18 02:33:38;;;;;;;4.97;3.60;;;12.40;99.90;;;;;;5100163;28;20180;-85
2022/06/18 02:36:20;;;;;;;5.65;4.07;;;12.40;99.90;;;;;;5095907;28;20224;-84
2022/06/18 02:38:47;;;;;;;5.45;3.80;;;12.40;99.90;;;;;;5091720;28;20170;-84
2022/06/18 02:41:13;;;;;;;5.95;3.72;;;12.30;99.90;;;;;;5096867;28;20174;-83
2022/06/18 02:43:41;;;;;;;4.97;3.80;;;12.30;99.90;;;;;;5086842;28;20191;-85
2022/06/18 02:46:08;;;;;;;6.68;4.10;;;12.30;99.90;;;;;;5104095;28;20626;-85
2022/06/18 02:48:36;;;;;;;5.00;3.38;;;12.30;99.90;;;;;;5084697;28;20178;-84
2022/06/18 02:51:02;;;;;;;5.38;3.40;;;12.40;99.90;;;;;;5098171;28;20198;-83
2022/06/18 02:53:30;;;;;;;7.03;3.75;;;12.40;99.90;;;;;;5080102;28;20272;-84
2022/06/18 02:56:03;;;;;;;6.15;4.18;;;12.50;99.90;;;;;;5095876;28;20189;-84
2022/06/18 02:58:39;;;;;;;6.53;3.42;;;12.50;99.90;;;;;;5093122;28;20167;-84
2022/06/18 03:01:17;;;;;;;5.72;3.95;;;12.50;99.90;;;;;;5093480;28;20159;-84
2022/06/18 03:03:47;;;;;;;7.03;4.75;;;12.50;99.90;;;;;;5093122;28;20154;-84
2022/06/18 03:06:14;;;;;;;8.57;4.80;;;12.40;99.90;;;;;;5093085;28;20159;-84
2022/06/18 03:08:41;;;;;;;8.27;4.13;;;12.50;99.90;;;;;;5091518;28;20181;-85
2022/06/18 03:13:54;;;;;;;4.50;3.78;;;12.50;99.90;;;;;;5092479;28;20188;-84
2022/06/18 03:16:22;;;;;;;7.57;4.78;;;12.60;99.90;;;;;;5092835;28;20174;-85
2022/06/18 03:18:48;;;;;;;7.97;5.32;;;12.70;99.90;;;;;;5074554;28;20639;-85
2022/06/18 03:21:26;;;;;;;6.57;3.90;;;12.70;99.90;;;;;;5074863;28;20214;-84
2022/06/18 03:23:51;;;;;;;8.75;4.75;;;12.80;99.90;;;;;;5093020;28;20166;-84
2022/06/18 03:26:18;;;;;;;6.45;4.07;;;12.80;99.90;;;;;;5074776;28;20178;-84
2022/06/18 03:28:45;;;;;;;5.28;3.88;;;12.90;99.90;;;;;;5090779;28;20226;-86
2022/06/18 03:31:11;;;;;;;6.10;3.90;;;13.00;99.90;;;;;;5092615;28;20210;-85
2022/06/18 03:33:37;;;;;;;7.95;4.55;;;13.00;99.90;;;;;;5091290;28;20171;-84
2022/06/18 03:36:04;;;;;;;8.43;5.07;;;13.10;99.90;;;;;;5091092;28;20177;-85
2022/06/18 03:38:30;;;;;;;6.50;4.28;;;13.20;99.90;;;;;;5092432;28;20202;-85
2022/06/18 03:40:56;;;;;;;6.50;4.32;;;13.20;99.90;;;;;;5091372;28;20677;-85
2022/06/18 03:43:23;;;;;;;7.57;4.82;;;13.30;99.90;;;;;;5074168;28;20206;-85
2022/06/18 03:46:00;;;;;;;7.25;4.82;;;13.40;99.90;;;;;;5091016;28;20240;-85
2022/06/18 03:48:43;;;;;;;7.00;4.30;;;13.40;99.90;;;;;;5092679;28;20170;-85
2022/06/18 03:51:09;;;;;;;9.70;5.13;;;13.50;99.90;;;;;;5090795;28;20221;-85
2022/06/18 03:53:35;;;;;;;8.10;5.25;;;13.60;99.90;;;;;;5092423;28;20167;-85
2022/06/18 03:56:01;;;;;;;5.38;3.85;;;13.60;99.90;;;;;;5095307;28;20260;-85
2022/06/18 03:58:28;;;;;;;6.20;4.32;;;13.70;99.90;;;;;;5094733;28;20635;-85
2022/06/18 04:00:54;;;;;;;7.28;5.20;;;13.70;99.90;;;;;;5094828;28;20183;-85
2022/06/18 04:03:20;;;;;;;7.13;4.75;;;13.80;99.90;;;;;;5094569;28;20182;-84
2022/06/18 04:05:46;;;;;;;5.57;4.38;;;13.80;99.90;;;;;;5060839;28;20265;-85
2022/06/18 04:08:14;;;;;;;6.10;4.25;;;13.90;99.90;;;;;;5095430;28;20178;-85
2022/06/18 04:10:41;;;;;;;7.93;4.45;;;14.00;99.90;;;;;;5094609;28;20210;-86
2022/06/18 04:13:07;;;;;;;6.65;4.40;;;14.00;99.90;;;;;;5094840;28;20197;-86
2022/06/18 04:15:33;;;;;;;3.90;3.33;;;14.10;99.90;;;;;;5094183;28;20211;-85
2022/06/18 04:17:58;;;;;;;8.20;5.38;;;14.20;99.90;;;;;;5094062;28;20197;-85
2022/06/18 04:20:30;;;;;;;5.88;3.90;;;14.40;99.90;;;;;;5094400;28;20215;-85
2022/06/18 04:22:57;;;;;;;7.25;4.50;;;14.50;99.90;;;;;;5093928;28;20174;-86
2022/06/18 04:25:23;;;;;;;5.72;3.90;;;14.50;99.90;;;;;;5076931;28;20193;-86
2022/06/18 04:27:49;;;;;;;4.78;3.40;;;14.60;99.90;;;;;;5077039;28;20178;-85
2022/06/18 04:30:17;;;;;;;5.60;4.07;;;14.70;99.90;;;;;;5093713;28;20230;-85
2022/06/18 04:32:43;;;;;;;4.60;3.42;;;14.80;99.90;;;;;;5093711;28;20183;-85
2022/06/18 04:35:11;;;;;;;5.40;3.70;;;14.90;99.90;;;;;;5077039;28;20190;-84
2022/06/18 04:37:37;;;;;;;4.18;3.25;;;15.10;99.90;;;;;;5094063;28;20257;-85
2022/06/18 04:40:03;;;;;;;4.93;3.42;;;15.10;99.90;;;;;;5076528;28;20183;-85
2022/06/18 04:42:29;;;;;;;4.45;2.83;;;15.20;99.90;;;;;;5072014;28;20528;-85
2022/06/18 04:44:56;;;;;;;3.38;2.92;;;15.40;99.90;;;;;;5089637;28;20243;-85
2022/06/18 04:47:21;;;;;;;5.35;3.25;;;15.50;99.90;;;;;;5094871;28;20240;-84
2022/06/18 04:49:47;;;;;;;4.70;3.05;;;15.50;99.90;;;;;;5094858;28;20694;-84
2022/06/18 04:52:13;;;;;;;5.22;3.47;;;15.60;99.90;;;;;;5095103;28;20210;-85
2022/06/18 04:54:39;;;;;;;5.25;2.97;;;15.70;99.90;;;;;;5076995;28;20182;-83
2022/06/18 04:57:04;;;;;;;4.90;3.47;;;15.70;99.90;;;;;;5093241;28;20701;-86
2022/06/18 04:59:31;;;;;;;5.63;3.38;;;15.80;99.90;;;;;;5085541;28;20179;-85
2022/06/18 05:02:03;;;;;;;3.95;2.80;;;16.00;99.90;;;;;;5105940;28;20183;-88
2022/06/18 05:04:28;;;;;;;3.42;2.63;;;16.00;99.90;;;;;;5105749;28;20181;-85
2022/06/18 05:06:54;;;;;;;3.63;2.85;;;16.10;99.90;;;;;;5084682;28;20262;-85
2022/06/18 05:09:20;;;;;;;6.10;3.10;;;16.20;99.90;;;;;;5103802;28;20183;-84
2022/06/18 05:11:46;;;;;;;3.42;2.53;;;16.30;99.90;;;;;;5077060;28;20575;-84
2022/06/18 05:14:12;;;;;;;4.13;3.05;;;16.30;99.90;;;;;;5093274;28;20264;-84
2022/06/18 05:16:37;;;;;;;4.30;3.03;;;16.40;99.90;;;;;;5075741;28;20270;-85
2022/06/18 05:19:03;;;;;;;3.40;2.67;;;16.50;99.90;;;;;;5075697;28;20276;-85
2022/06/18 05:21:28;;;;;;;4.53;2.50;;;16.60;99.90;;;;;;5092068;28;20639;-85
2022/06/18 05:23:54;;;;;;;4.65;2.88;;;16.80;99.90;;;;;;5091839;28;20212;-84
2022/06/18 05:26:20;;;;;;;3.22;2.60;;;16.90;99.90;;;;;;5092149;28;20186;-84
2022/06/18 05:28:45;;;;;;;5.35;2.72;;;17.00;99.90;;;;;;5092209;28;20691;-85
2022/06/18 05:31:11;;;;;;;3.58;2.63;;;17.10;99.90;;;;;;5092110;28;20203;-85
2022/06/18 05:33:37;;;;;;;3.13;2.25;;;17.30;99.90;;;;;;5093133;28;20214;-85
2022/06/18 05:36:04;;;;;;;3.05;2.20;;;17.40;99.90;;;;;;5092790;28;20213;-85
2022/06/18 05:38:30;;;;;;;6.78;1.98;;;17.60;99.90;;;;;;5076812;28;20221;-84
2022/06/18 05:40:55;;;;;;;2.25;1.92;;;17.70;99.90;;;;;;5095745;28;20585;-84
2022/06/18 05:43:21;;;;;;;2.53;2.17;;;17.90;99.90;;;;;;5092946;28;20253;-86
2022/06/18 05:45:47;;;;;;;2.40;1.90;;;18.10;99.90;;;;;;5092400;28;20223;-83
2022/06/18 05:48:13;;;;;;;2.45;1.92;;;18.20;99.90;;;;;;5091819;28;20170;-85
2022/06/18 05:50:39;;;;;;;2.55;1.90;;;18.30;99.90;;;;;;5091502;28;20233;-86
2022/06/18 05:53:05;;;;;;;2.15;1.95;;;18.40;99.90;;;;;;5074833;28;20265;-86
2022/06/18 05:55:31;;;;;;;1.63;1.42;;;18.40;99.90;;;;;;5075112;28;20175;-86
2022/06/18 05:57:58;;;;;;;3.53;1.92;;;18.40;99.90;;;;;;5091545;28;20182;-85
2022/06/18 06:00:27;;;;;;;2.58;1.42;;;18.50;99.90;;;;;;5091687;28;20277;-85
2022/06/18 06:02:53;;;;;;;1.88;1.73;;;18.60;99.90;;;;;;5091495;28;20206;-87
2022/06/18 06:05:18;;;;;;;2.13;1.30;;;18.70;99.90;;;;;;5093141;28;20205;-86
2022/06/18 06:07:44;;;;;;;3.53;1.35;;;18.70;99.90;;;;;;5090896;28;20179;-86
2022/06/18 06:13:24;;;;;;;1.90;1.73;;;18.80;99.90;;;;;;5083802;28;20286;-82
2022/06/18 06:15:51;;;;;;;2.22;1.38;;;19.00;99.90;;;;;;5091206;28;20175;-84
2022/06/18 06:18:19;;;;;;;4.65;1.80;;;19.00;99.90;;;;;;5092335;28;20206;-84
2022/06/18 06:20:48;;;;;;;5.53;3.00;;;19.10;99.90;;;;;;5095879;28;20539;-84
2022/06/18 06:23:14;;;;;;;2.00;1.80;;;19.10;99.90;;;;;;5093886;28;20222;-85
2022/06/18 06:25:41;;;;;;;2.83;1.88;;;19.20;99.90;;;;;;5092489;28;20185;-86
2022/06/18 06:28:11;;;;;;;2.80;2.00;;;19.30;99.90;;;;;;5091282;28;20183;-87
2022/06/18 06:30:38;;;;;;;3.40;2.20;;;19.40;99.90;;;;;;5093498;28;20210;-85
2022/06/18 06:33:04;;;;;;;1.83;1.60;;;19.50;99.90;;;;;;5092594;28;20237;-84
2022/06/18 06:35:30;;;;;;;2.10;1.75;;;19.60;99.90;;;;;;5090951;28;21013;-84
2022/06/18 06:37:55;;;;;;;2.35;2.10;;;19.70;99.90;;;;;;5091662;28;20174;-85
2022/06/18 06:40:22;;;;;;;3.78;1.83;;;19.60;99.90;;;;;;5090763;28;20198;-84
2022/06/18 06:42:52;;;;;;;1.40;1.30;;;19.70;99.90;;;;;;5090859;28;20175;-84
2022/06/18 06:45:21;;;;;;;2.92;2.30;;;19.80;99.90;;;;;;5091558;28;20175;-85
2022/06/18 06:47:47;;;;;;;2.78;1.73;;;19.80;99.90;;;;;;5090443;28;20291;-85
2022/06/18 06:50:15;;;;;;;1.98;1.60;;;19.70;99.90;;;;;;5090837;28;20209;-87
2022/06/18 06:52:42;;;;;;;3.10;1.98;;;19.70;99.90;;;;;;5092478;28;20223;-83
2022/06/18 06:58:12;;;;;;;1.75;1.65;;;20.00;99.90;;;;;;5092329;28;20182;-83
2022/06/18 07:00:47;;;;;;;2.78;1.83;;;20.30;99.90;;;;;;5090743;28;20178;-84
2022/06/18 07:03:15;;;;;;;1.77;1.27;;;20.40;99.90;;;;;;5092491;28;20177;-84
2022/06/18 07:05:41;;;;;;;3.13;1.70;;;20.50;99.90;;;;;;5091893;28;20185;-84
2022/06/18 07:08:07;;;;;;;1.88;1.23;;;20.60;99.90;;;;;;5091856;28;20185;-84
2022/06/18 07:10:33;;;;;;;2.33;1.50;;;20.70;99.90;;;;;;5091634;28;20202;-83
2022/06/18 07:12:59;;;;;;;6.65;1.58;;;20.80;99.90;;;;;;5091949;28;20174;-83
2022/06/18 07:15:24;;;;;;;1.75;1.42;;;20.90;99.90;;;;;;5073186;28;20175;-83
2022/06/18 07:17:50;;;;;;;1.45;1.35;;;20.90;99.90;;;;;;5090534;28;20174;-83
2022/06/18 07:20:18;;;;;;;1.83;1.50;;;20.90;99.90;;;;;;5057228;28;20199;-83
2022/06/18 07:22:44;;;;;;;1.15;1.05;;;20.80;99.90;;;;;;5091884;28;20194;-83
2022/06/18 07:25:12;;;;;;;1.58;1.40;;;21.00;99.90;;;;;;5090597;28;20278;-84
2022/06/18 07:27:38;;;;;;;1.63;1.13;;;21.10;99.90;;;;;;5091810;28;20181;-83
2022/06/18 07:30:07;;;;;;;1.88;1.50;;;21.20;99.90;;;;;;5094175;28;20699;-83
2022/06/18 07:32:33;;;;;;;1.65;1.10;;;21.30;99.90;;;;;;5095152;28;20181;-83
2022/06/18 07:34:58;;;;;;;2.30;1.45;;;21.30;99.90;;;;;;5094386;28;20257;-83
2022/06/18 07:37:25;;;;;;;1.63;1.20;;;21.20;99.90;;;;;;5077064;28;20301;-83
2022/06/18 07:39:50;;;;;;;2.05;1.40;;;21.20;99.90;;;;;;5094126;28;20178;-83
2022/06/18 07:42:20;;;;;;;1.40;1.30;;;21.40;99.90;;;;;;5094987;28;20205;-84
2022/06/18 07:44:46;;;;;;;1.17;1.05;;;21.60;99.90;;;;;;5095759;28;20178;-84
2022/06/18 07:47:17;;;;;;;1.50;1.25;;;21.60;99.90;;;;;;5095798;28;20174;-84
2022/06/18 07:49:45;;;;;;;2.88;1.23;;;21.70;99.90;;;;;;5094677;28;20206;-85
2022/06/18 07:52:14;;;;;;;1.60;1.30;;;21.80;99.90;;;;;;5094589;28;20175;-84
2022/06/18 07:54:42;;;;;;;2.97;1.25;;;21.60;99.90;;;;;;5093839;28;20260;-84
2022/06/18 07:57:07;;;;;;;1.42;1.33;;;21.60;99.90;;;;;;5094347;28;20171;-84
2022/06/18 07:59:33;;;;;;;1.88;1.00;;;21.60;99.90;;;;;;5094366;28;20536;-85
2022/06/18 08:01:59;;;;;;;1.15;1.00;;;21.70;99.90;;;;;;5094116;28;20186;-84
2022/06/18 08:04:26;;;;;;;1.50;1.10;;;21.80;99.90;;;;;;5093863;28;20636;-85
2022/06/18 08:06:52;;;;;;;1.95;1.10;;;21.90;99.90;;;;;;5094008;28;20177;-84
2022/06/18 08:09:18;;;;;;;2.40;1.10;;;22.00;99.90;;;;;;5094088;28;20202;-83
2022/06/18 08:11:43;;;;;;;3.38;2.20;;;21.90;99.90;;;;;;5077024;28;20756;-84
2022/06/18 08:14:10;;;;;;;1.42;1.08;;;22.00;99.90;;;;;;5077106;28;20186;-84
2022/06/18 08:16:36;;;;;;;1.48;1.20;;;22.20;99.90;;;;;;5093905;28;20185;-83
2022/06/18 08:19:02;;;;;;;1.00;0.90;;;22.20;99.90;;;;;;5094027;28;20214;-84
2022/06/18 08:21:36;;;;;;;1.08;1.00;;;22.20;99.90;;;;;;5094556;28;20175;-84
2022/06/18 08:24:06;;;;;;;1.35;1.10;;;22.20;99.90;;;;;;5094847;28;20194;-84
2022/06/18 08:26:33;;;;;;;1.50;1.10;;;22.10;99.90;;;;;;5094887;28;20574;-84
2022/06/18 08:29:01;;;;;;;1.02;0.93;;;22.20;99.90;;;;;;5093709;28;20238;-84
2022/06/18 08:31:27;;;;;;;1.27;0.85;;;22.20;99.90;;;;;;5094821;28;20194;-87
2022/06/18 08:33:53;;;;;;;1.30;1.20;;;22.20;99.90;;;;;;5095001;28;20182;-84
2022/06/18 08:36:19;;;;;;;1.90;1.35;;;22.40;99.90;;;;;;5077030;28;20174;-84
2022/06/18 08:38:47;;;;;;;1.15;0.93;;;22.60;99.90;;;;;;5093795;28;20182;-84
2022/06/18 08:41:28;;;;;;;1.10;0.98;;;22.80;98.40;;;;;;5094880;28;20171;-85
2022/06/18 08:44:31;;;;;;;1.23;1.02;;;22.80;96.00;;;;;;5093201;28;20189;-84
2022/06/18 08:47:26;;;;;;;0.70;0.70;;;22.90;94.30;;;;;;5093258;28;20182;-84
2022/06/18 08:50:25;;;;;;;2.65;1.20;;;22.90;93.00;;;;;;5094235;28;20201;-85
2022/06/18 08:53:11;;;;;;;1.70;1.30;;;22.90;94.20;;;;;;5094230;28;20171;-85
2022/06/18 08:55:41;;;;;;;1.27;1.00;;;22.70;93.50;;;;;;5092909;28;20611;-86
2022/06/18 08:58:34;;;;;;;0.95;0.80;;;22.70;94.10;;;;;;5093070;28;20179;-84
2022/06/18 09:01:09;;;;;;;0.70;0.70;;;22.80;93.60;;;;;;5094762;28;20190;-85
2022/06/18 09:03:54;;;;;;;1.17;1.05;;;23.10;94.60;;;;;;5094201;28;20232;-86
2022/06/18 09:06:47;;;;;;;1.10;1.00;;;23.00;91.90;;;;;;5093181;28;20566;-86
2022/06/18 09:09:50;;;;;;;0.80;0.80;;;23.00;91.60;;;;;;5094189;28;20171;-85
2022/06/18 09:12:21;;;;;;;1.05;0.90;;;23.00;92.70;;;;;;5092338;28;20255;-85
2022/06/18 09:15:11;;;;;;;0.77;0.77;;;23.10;92.40;;;;;;5091879;28;20178;-85
2022/06/18 09:18:06;;;;;;;1.67;1.13;;;23.30;93.70;;;;;;5092137;28;20666;-85
2022/06/18 09:20:37;;;;;;;3.10;1.00;;;23.40;89.60;;;;;;5092677;28;20190;-85
2022/06/18 09:23:35;;;;;;;0.82;0.82;;;23.40;91.10;;;;;;5093543;28;20183;-84
2022/06/18 09:26:04;;;;;;;2.80;0.90;;;23.40;91.50;;;;;;5092030;28;20233;-85
2022/06/18 09:28:43;;;;;;;0.85;0.80;;;23.50;90.70;;;;;;5091818;28;20181;-86
2022/06/18 09:31:29;;;;;;;0.90;0.90;;;23.60;90.90;;;;;;5091752;28;20301;-85
2022/06/18 09:33:59;;;;;;;1.38;1.15;;;23.40;88.80;;;;;;5093444;28;20256;-85
2022/06/18 09:36:33;;;;;;;4.53;1.20;;;23.50;90.00;;;;;;5093273;28;20155;-85
2022/06/18 09:38:59;;;;;;;1.63;0.95;;;23.70;86.90;;;;;;5091435;28;20228;-85
2022/06/18 09:41:39;;;;;;;2.38;1.38;;;23.70;90.70;;;;;;5091987;28;20183;-85
2022/06/18 09:44:32;;;;;;;0.73;0.73;;;23.80;90.00;;;;;;5093202;28;20245;-85
2022/06/18 09:47:12;;;;;;;0.85;0.73;;;23.60;85.60;;;;;;5089577;28;20186;-85
2022/06/18 09:49:39;;;;;;;0.85;0.85;;;23.60;86.20;;;;;;5091956;28;20179;-85
2022/06/18 09:52:12;;;;;;;3.55;1.33;;;23.50;85.00;;;;;;5091326;28;20185;-84
2022/06/18 09:54:44;;;;;;;2.20;0.93;;;23.30;86.90;;;;;;5092636;28;20179;-85
2022/06/18 09:57:13;;;;;;;1.63;1.38;;;23.20;89.10;;;;;;5092049;28;20249;-84
2022/06/18 09:59:54;;;;;;;2.03;1.33;;;23.40;88.00;;;;;;5091838;28;20247;-83
2022/06/18 10:02:27;;;;;;;1.48;1.10;;;23.40;87.80;;;;;;5093277;28;20651;-85
2022/06/18 10:07:52;;;;;;;0.93;0.90;;;23.40;86.20;;;;;;5060529;28;20266;-83
2022/06/18 10:10:22;;;;;;;0.65;0.60;;;23.50;87.70;;;;;;5093196;28;20202;-85
2022/06/18 10:12:52;;;;;;;0.75;0.75;;;23.60;84.20;;;;;;5092597;28;20167;-84
2022/06/18 10:15:18;;;;;;;1.25;1.15;;;23.40;83.80;;;;;;5091167;28;20170;-84
2022/06/18 10:18:08;;;;;;;0.93;0.77;;;23.40;83.50;;;;;;5092280;28;20182;-84
2022/06/18 10:20:46;;;;;;;1.00;0.90;;;23.50;83.00;;;;;;5105764;28;20202;-84
2022/06/18 10:23:53;;;;;;;0.88;0.82;;;23.60;83.10;;;;;;5092178;28;20174;-83
2022/06/18 10:26:41;;;;;;;3.53;1.40;;;23.60;84.70;;;;;;5076642;28;20244;-83
2022/06/18 10:29:39;;;;;;;1.15;0.73;;;23.50;82.80;;;;;;5106632;28;20372;-84
2022/06/18 10:32:17;;;;;;;1.95;1.60;;;23.60;80.00;;;;;;5089814;28;20289;-84
2022/06/18 10:34:55;;;;;;;1.73;0.93;;;23.60;81.10;;;;;;5092380;28;20168;-83
2022/06/18 10:37:39;;;;;;;1.13;1.05;;;23.60;85.50;;;;;;5091606;28;20178;-84
2022/06/18 10:40:33;;;;;;;0.80;0.80;;;23.60;82.70;;;;;;5090850;28;20186;-84
2022/06/18 10:43:08;;;;;;;1.10;1.00;;;23.80;82.60;;;;;;5084411;28;20185;-85
2022/06/18 10:46:06;;;;;;;0.93;0.90;;;24.00;82.90;;;;;;5092028;28;20170;-84
2022/06/18 10:48:32;;;;;;;0.82;0.80;;;24.00;82.90;;;;;;5086284;28;20213;-85
2022/06/18 10:51:00;;;;;;;1.05;0.98;;;24.10;82.50;;;;;;5073869;28;20238;-84
2022/06/18 10:53:29;;;;;;;1.17;1.08;;;24.20;80.00;;;;;;5090727;28;20182;-85
2022/06/18 10:56:02;;;;;;;1.10;0.85;;;24.40;79.70;;;;;;5091728;28;20171;-84
2022/06/18 10:58:31;;;;;;;1.75;1.10;;;24.40;79.80;;;;;;5089680;28;20182;-84
2022/06/18 11:01:02;;;;;;;1.30;0.90;;;24.20;77.50;;;;;;5090519;28;20257;-84
2022/06/18 11:03:33;;;;;;;1.15;0.80;;;24.10;80.90;;;;;;5092020;28;20181;-82
2022/06/18 11:06:10;;;;;;;0.90;0.90;;;24.00;79.90;;;;;;5090698;28;20171;-85
2022/06/18 11:08:37;;;;;;;1.08;0.98;;;24.30;79.90;;;;;;5109541;28;20182;-85
2022/06/18 11:11:07;;;;;;;1.35;1.17;;;24.70;82.10;;;;;;5094990;28;20647;-84
2022/06/18 11:13:35;;;;;;;1.70;1.13;;;24.80;81.50;;;;;;5111215;28;20230;-85
2022/06/18 11:16:13;;;;;;;1.00;0.90;;;24.90;78.80;;;;;;5095482;28;20181;-85
2022/06/18 11:18:46;;;;;;;2.67;1.83;;;24.80;76.90;;;;;;5095111;28;20251;-84
2022/06/18 11:21:25;;;;;;;1.13;0.90;;;24.60;79.10;;;;;;5095777;28;20452;-84
2022/06/18 11:24:16;;;;;;;2.17;1.38;;;24.60;77.40;;;;;;5094272;28;20170;-85
2022/06/18 11:26:49;;;;;;;1.13;0.95;;;24.50;80.70;;;;;;5093878;28;20235;-84
2022/06/18 11:29:35;;;;;;;1.75;0.80;;;24.40;78.60;;;;;;5092651;28;20230;-85
2022/06/18 11:32:08;;;;;;;0.95;0.95;;;24.30;77.70;;;;;;5092737;28;20190;-84
2022/06/18 11:34:37;;;;;;;1.20;1.10;;;24.40;78.70;;;;;;5095044;28;20170;-84
2022/06/18 11:37:22;;;;;;;3.25;0.90;;;24.50;79.30;;;;;;5094605;28;20174;-84
2022/06/18 11:40:15;;;;;;;1.50;0.93;;;24.50;77.20;;;;;;5095613;28;20529;-84
2022/06/18 11:42:56;;;;;;;1.08;1.00;;;24.40;77.20;;;;;;5093637;28;20162;-85
2022/06/18 11:45:56;;;;;;;1.33;1.10;;;24.30;77.90;;;;;;5093457;28;20203;-85
2022/06/18 11:48:52;;;;;;;1.00;0.90;;;24.30;79.70;;;;;;5102468;28;20186;-84
2022/06/18 11:51:38;;;;;;;1.08;0.98;;;24.20;78.90;;;;;;5107941;28;20205;-84
2022/06/18 11:54:23;;;;;;;2.55;1.23;;;24.30;78.20;;;;;;5105720;28;20226;-83
2022/06/18 11:57:19;;;;;;;1.55;1.10;;;24.20;80.40;;;;;;5117447;28;20257;-84
2022/06/18 12:00:03;;;;;;;1.40;1.10;;;24.40;81.50;;;;;;5091458;28;20202;-84
2022/06/18 12:02:54;;;;;;;3.97;1.67;;;24.40;80.40;;;;;;5091945;28;20236;-84
2022/06/18 12:05:32;;;;;;;1.30;0.90;;;24.40;80.90;;;;;;5092135;28;20181;-85
2022/06/18 12:08:00;;;;;;;1.88;1.30;;;24.30;78.30;;;;;;5091365;28;20208;-84
2022/06/18 12:10:54;;;;;;;1.75;1.23;;;24.20;81.30;;;;;;5094260;28;20251;-84
2022/06/18 12:13:38;;;;;;;1.15;1.00;;;24.10;80.10;;;;;;5091856;28;20213;-85
2022/06/18 12:16:22;;;;;;;1.50;1.23;;;24.00;78.50;;;;;;5091038;28;20205;-86
2022/06/18 12:19:20;;;;;;;2.38;1.23;;;23.80;79.70;;;;;;5092876;28;20174;-83
2022/06/18 12:21:55;;;;;;;1.30;1.10;;;23.80;81.90;;;;;;5090804;28;20191;-84
2022/06/18 12:24:41;;;;;;;2.65;1.60;;;23.80;82.30;;;;;;5094530;28;20253;-85
2022/06/18 12:27:28;;;;;;;2.00;1.08;;;23.80;84.20;;;;;;5090614;28;20579;-85
2022/06/18 12:30:14;;;;;;;0.90;0.90;;;23.90;83.80;;;;;;5091820;28;20513;-85
2022/06/18 12:33:01;;;;;;;1.05;1.00;;;24.00;83.70;;;;;;5093323;28;20168;-84
2022/06/18 12:35:37;;;;;;;2.20;1.38;;;24.00;81.60;;;;;;5092610;28;20171;-84
2022/06/18 12:38:36;;;;;;;1.77;1.13;;;24.10;83.00;;;;;;5092596;28;20556;-85
2022/06/18 12:41:12;;;;;;;2.15;0.88;;;24.20;79.90;;;;;;5109571;28;20253;-84
2022/06/18 12:44:02;;;;;;;1.40;1.00;;;24.30;80.80;;;;;;5094081;28;20179;-84
2022/06/18 12:46:38;;;;;;;1.20;1.10;;;24.30;81.40;;;;;;5092114;28;20167;-84
2022/06/18 12:49:35;;;;;;;1.30;1.20;;;24.20;82.10;;;;;;5086704;28;20452;-85
2022/06/18 12:52:19;;;;;;;1.75;1.38;;;24.30;81.70;;;;;;5092555;28;20194;-84
2022/06/18 12:55:30;;;;;;;0.98;0.93;;;24.40;79.50;;;;;;5092599;28;20179;-84
2022/06/18 12:58:08;;;;;;;1.75;1.17;;;24.40;79.30;;;;;;5077337;28;20281;-83
2022/06/18 13:00:49;;;;;;;2.75;1.13;;;24.40;80.10;;;;;;5095384;28;20214;-84
2022/06/18 13:03:28;;;;;;;1.17;1.13;;;24.50;80.30;;;;;;5094805;28;20254;-84
2022/06/18 13:06:17;;;;;;;1.50;1.08;;;24.60;79.20;;;;;;5095006;28;20231;-83
2022/06/18 13:08:50;;;;;;;1.90;0.75;;;24.60;75.30;;;;;;5093806;28;20185;-84
2022/06/18 13:11:27;;;;;;;1.20;1.10;;;24.90;78.10;;;;;;5093238;28;20230;-84
2022/06/18 13:14:30;;;;;;;1.15;1.08;;;25.20;77.70;;;;;;5093383;28;20174;-84
2022/06/18 13:17:05;;;;;;;1.33;1.10;;;25.40;74.90;;;;;;5093342;28;20658;-84
2022/06/18 13:19:36;;;;;;;1.13;1.05;;;25.50;74.10;;;;;;5094269;28;20166;-84
2022/06/18 13:22:05;;;;;;;1.67;0.93;;;25.60;70.90;;;;;;5094244;28;20607;-84
2022/06/18 13:30:47;;;;;;;1.40;1.30;;;25.40;74.20;;;;;;5094093;28;20584;-84
2022/06/18 13:33:39;;;;;;;1.60;1.50;;;25.50;71.40;;;;;;5092837;28;20181;-84
2022/06/18 13:36:15;;;;;;;1.38;1.27;;;25.50;73.60;;;;;;5094308;28;20206;-84